Time,TemperatureF,DewpointF,PressureIn,WindDirection,WindDirectionDegrees,WindSpeedMPH,WindSpeedGustMPH,Humidity,HourlyPrecipIn,Conditions,Clouds,dailyrainin,SoftwareType,DateUTC
2013-10-24 00:01:00,44.5,41.5,29.57,South,188,0.0,1.0,89,0.00,,,0.00,VWS V14.01,2013-10-24 04:01:00,
2013-10-24 00:11:00,44.3,41.6,29.57,South,188,0.0,1.0,90,0.00,,,0.00,VWS V14.01,2013-10-24 04:11:00,
2013-10-24 00:21:00,44.3,41.6,29.57,South,188,0.0,2.0,90,0.00,,,0.00,VWS V14.01,2013-10-24 04:21:00,
2013-10-24 00:31:00,44.2,41.5,29.58,South,188,0.0,1.0,90,0.00,,,0.00,VWS V14.01,2013-10-24 04:31:00,
2013-10-24 00:41:00,43.8,41.1,29.58,South,188,0.0,1.0,90,0.00,,,0.00,VWS V14.01,2013-10-24 04:41:00,
2013-10-24 00:51:00,43.3,40.3,29.58,South,188,0.0,0.0,89,0.00,,,0.00,VWS V14.01,2013-10-24 04:51:00,
2013-10-24 01:01:00,42.8,39.8,29.58,South,188,1.0,1.0,89,0.00,,,0.00,VWS V14.01,2013-10-24 05:01:00,
2013-10-24 01:11:00,42.4,39.7,29.58,South,188,0.0,1.0,90,0.00,,,0.00,VWS V14.01,2013-10-24 05:11:00,
2013-10-24 01:21:00,41.9,39.2,29.58,South,188,0.0,1.0,90,0.00,,,0.00,VWS V14.01,2013-10-24 05:21:00,
2013-10-24 01:31:00,41.6,39.2,29.59,South,188,0.0,2.0,91,0.00,,,0.00,VWS V14.01,2013-10-24 05:31:00,
2013-10-24 01:41:00,41.4,39.0,29.59,South,188,0.0,2.0,91,0.00,,,0.00,VWS V14.01,2013-10-24 05:41:00,
2013-10-24 01:51:00,41.2,38.8,29.59,South,188,0.0,1.0,91,0.00,,,0.00,VWS V14.01,2013-10-24 05:51:00,
2013-10-24 02:01:00,40.9,38.5,29.59,South,188,1.0,1.0,91,0.00,,,0.00,VWS V14.01,2013-10-24 06:01:00,
2013-10-24 02:11:00,40.5,38.1,29.59,South,188,0.0,2.0,91,0.00,,,0.00,VWS V14.01,2013-10-24 06:11:00,
2013-10-24 02:21:00,40.0,37.9,29.60,South,188,0.0,1.0,92,0.00,,,0.00,VWS V14.01,2013-10-24 06:21:00,
2013-10-24 02:31:00,39.6,37.8,29.60,South,188,1.0,1.0,93,0.00,,,0.00,VWS V14.01,2013-10-24 06:31:00,
2013-10-24 02:41:00,39.5,37.7,29.60,South,188,0.0,1.0,93,0.00,,,0.00,VWS V14.01,2013-10-24 06:41:00,
2013-10-24 02:51:00,39.4,37.5,29.60,South,189,0.0,1.0,93,0.00,,,0.00,VWS V14.01,2013-10-24 06:51:00,
2013-10-24 03:01:00,39.3,37.5,29.60,South,188,1.0,2.0,93,0.00,,,0.00,VWS V14.01,2013-10-24 07:01:00,
2013-10-24 03:11:00,39.2,37.3,29.60,South,188,0.0,2.0,93,0.00,,,0.00,VWS V14.01,2013-10-24 07:11:00,
2013-10-24 03:21:00,39.3,37.7,29.61,South,188,2.0,2.0,94,0.00,,,0.00,VWS V14.01,2013-10-24 07:21:00,
2013-10-24 03:31:00,39.4,37.5,29.61,South,191,0.0,2.0,93,0.00,,,0.00,VWS V14.01,2013-10-24 07:31:00,
2013-10-24 03:41:00,39.3,37.5,29.61,South,191,0.0,1.0,93,0.00,,,0.00,VWS V14.01,2013-10-24 07:41:00,
2013-10-24 03:51:00,39.1,37.5,29.62,South,191,0.0,1.0,94,0.00,,,0.00,VWS V14.01,2013-10-24 07:51:00,
2013-10-24 04:01:00,38.9,37.0,29.63,South,191,0.0,1.0,93,0.00,,,0.00,VWS V14.01,2013-10-24 08:01:00,
2013-10-24 04:11:00,38.6,36.8,29.63,South,191,0.0,1.0,93,0.00,,,0.00,VWS V14.01,2013-10-24 08:11:00,
2013-10-24 04:21:00,38.3,36.5,29.63,South,191,0.0,1.0,93,0.00,,,0.00,VWS V14.01,2013-10-24 08:21:00,
2013-10-24 04:31:00,38.2,36.6,29.64,South,191,0.0,0.0,94,0.00,,,0.00,VWS V14.01,2013-10-24 08:31:00,
2013-10-24 04:41:00,38.0,36.4,29.64,South,191,1.0,1.0,94,0.00,,,0.00,VWS V14.01,2013-10-24 08:41:00,
2013-10-24 04:51:00,37.6,35.8,29.65,South,191,0.0,2.0,93,0.00,,,0.00,VWS V14.01,2013-10-24 08:51:00,
2013-10-24 05:01:00,37.2,35.6,29.66,South,191,0.0,2.0,94,0.00,,,0.00,VWS V14.01,2013-10-24 09:01:00,
2013-10-24 05:11:00,36.9,35.3,29.66,South,191,0.0,1.0,94,0.00,,,0.00,VWS V14.01,2013-10-24 09:11:00,
2013-10-24 05:21:00,36.8,35.2,29.66,South,191,0.0,1.0,94,0.00,,,0.00,VWS V14.01,2013-10-24 09:21:00,
2013-10-24 05:31:00,36.8,35.2,29.66,South,191,0.0,1.0,94,0.00,,,0.00,VWS V14.01,2013-10-24 09:31:00,
2013-10-24 05:41:00,36.7,35.1,29.66,South,191,0.0,1.0,94,0.00,,,0.00,VWS V14.01,2013-10-24 09:41:00,
2013-10-24 05:51:00,36.7,35.1,29.67,South,191,0.0,1.0,94,0.00,,,0.00,VWS V14.01,2013-10-24 09:51:00,
2013-10-24 06:01:00,36.5,34.9,29.67,South,191,0.0,1.0,94,0.00,,,0.00,VWS V14.01,2013-10-24 10:01:00,
2013-10-24 06:11:00,36.4,34.8,29.67,South,191,0.0,1.0,94,0.00,,,0.00,VWS V14.01,2013-10-24 10:11:00,
2013-10-24 06:21:00,36.2,34.6,29.68,South,191,0.0,1.0,94,0.00,,,0.00,VWS V14.01,2013-10-24 10:21:00,
2013-10-24 06:31:00,36.0,34.4,29.69,South,191,0.0,1.0,94,0.00,,,0.00,VWS V14.01,2013-10-24 10:31:00,
2013-10-24 06:41:00,35.9,34.6,29.69,South,191,0.0,1.0,95,0.00,,,0.00,VWS V14.01,2013-10-24 10:41:00,
2013-10-24 06:51:00,35.9,34.6,29.70,South,191,1.0,1.0,95,0.00,,,0.00,VWS V14.01,2013-10-24 10:51:00,
2013-10-24 07:01:00,35.9,34.6,29.70,South,191,0.0,1.0,95,0.00,,,0.00,VWS V14.01,2013-10-24 11:01:00,
2013-10-24 07:11:00,36.0,34.7,29.70,SSW,198,1.0,2.0,95,0.00,,,0.00,VWS V14.01,2013-10-24 11:11:00,
2013-10-24 07:21:00,36.1,34.8,29.71,SSW,198,1.0,1.0,95,0.00,,,0.00,VWS V14.01,2013-10-24 11:21:00,
2013-10-24 07:31:00,36.2,34.9,29.72,SSW,198,2.0,2.0,95,0.00,,,0.00,VWS V14.01,2013-10-24 11:31:00,
2013-10-24 07:41:00,36.3,35.0,29.72,SSW,198,0.0,2.0,95,0.00,,,0.00,VWS V14.01,2013-10-24 11:41:00,
2013-10-24 07:51:00,36.7,35.4,29.73,SSW,208,1.0,3.0,95,0.00,,,0.00,VWS V14.01,2013-10-24 11:51:00,
2013-10-24 08:01:00,37.2,35.9,29.74,SSW,213,0.0,3.0,95,0.00,,,0.00,VWS V14.01,2013-10-24 12:01:00,
2013-10-24 08:11:00,37.9,36.1,29.74,SSW,213,0.0,4.0,93,0.00,,,0.00,VWS V14.01,2013-10-24 12:11:00,
2013-10-24 08:21:00,38.4,36.6,29.75,SSW,208,2.0,2.0,93,0.00,,,0.00,VWS V14.01,2013-10-24 12:21:00,
2013-10-24 08:31:00,39.5,37.1,29.75,SSW,210,1.0,6.0,91,0.00,,,0.00,VWS V14.01,2013-10-24 12:31:00,
2013-10-24 08:41:00,40.4,37.1,29.75,SW,221,3.0,7.0,88,0.00,,,0.00,VWS V14.01,2013-10-24 12:41:00,
2013-10-24 08:51:00,41.4,37.8,29.75,SW,229,0.0,3.0,87,0.00,,,0.00,VWS V14.01,2013-10-24 12:51:00,
2013-10-24 09:01:00,42.4,38.2,29.76,South,186,0.0,6.0,85,0.00,,,0.00,VWS V14.01,2013-10-24 13:01:00,
2013-10-24 09:11:00,43.1,38.3,29.76,SW,228,1.0,7.0,83,0.00,,,0.00,VWS V14.01,2013-10-24 13:11:00,
2013-10-24 09:21:00,44.0,38.2,29.76,SSW,209,2.0,7.0,80,0.00,,,0.00,VWS V14.01,2013-10-24 13:21:00,
2013-10-24 09:31:00,44.7,37.9,29.76,SSW,213,1.0,7.0,77,0.00,,,0.00,VWS V14.01,2013-10-24 13:31:00,
2013-10-24 09:41:00,45.3,38.5,29.76,SW,225,1.0,7.0,77,0.00,,,0.00,VWS V14.01,2013-10-24 13:41:00,
2013-10-24 09:51:00,45.7,37.2,29.76,SW,236,4.0,11.0,72,0.00,,,0.00,VWS V14.01,2013-10-24 13:51:00,
2013-10-24 10:01:00,46.0,36.4,29.76,SSW,207,2.0,13.0,69,0.00,,,0.00,VWS V14.01,2013-10-24 14:01:00,
2013-10-24 10:11:00,46.4,35.3,29.76,SW,224,3.0,9.0,65,0.00,,,0.00,VWS V14.01,2013-10-24 14:11:00,
2013-10-24 10:21:00,46.7,34.0,29.76,WSW,242,4.0,17.0,61,0.00,,,0.00,VWS V14.01,2013-10-24 14:21:00,
2013-10-24 10:31:00,47.0,34.3,29.76,SSE,161,0.0,9.0,61,0.00,,,0.00,VWS V14.01,2013-10-24 14:31:00,
2013-10-24 10:41:00,47.4,35.5,29.76,SW,224,3.0,10.0,63,0.00,,,0.00,VWS V14.01,2013-10-24 14:41:00,
2013-10-24 10:51:00,47.9,31.6,29.75,SSW,194,2.0,12.0,53,0.00,,,0.00,VWS V14.01,2013-10-24 14:51:00,
2013-10-24 11:01:00,48.3,33.8,29.75,ESE,116,2.0,11.0,57,0.00,,,0.00,VWS V14.01,2013-10-24 15:01:00,
2013-10-24 11:11:00,48.7,31.9,29.75,SSW,204,2.0,11.0,52,0.00,,,0.00,VWS V14.01,2013-10-24 15:11:00,
2013-10-24 11:21:00,49.0,31.2,29.75,SW,232,5.0,12.0,50,0.00,,,0.00,VWS V14.01,2013-10-24 15:21:00,
2013-10-24 11:31:00,49.5,30.6,29.75,SW,236,3.0,13.0,48,0.00,,,0.00,VWS V14.01,2013-10-24 15:31:00,
2013-10-24 11:41:00,49.5,29.6,29.75,SSW,213,10.0,14.0,46,0.00,,,0.00,VWS V14.01,2013-10-24 15:41:00,
2013-10-24 11:51:00,49.6,29.1,29.74,SW,225,5.0,15.0,45,0.00,,,0.00,VWS V14.01,2013-10-24 15:51:00,
2013-10-24 12:01:00,50.0,29.5,29.74,WSW,244,2.0,13.0,45,0.00,,,0.00,VWS V14.01,2013-10-24 16:01:00,
2013-10-24 12:11:00,50.3,29.8,29.74,NNE,21,2.0,13.0,45,0.00,,,0.00,VWS V14.01,2013-10-24 16:11:00,
2013-10-24 12:21:00,50.4,30.4,29.74,SSW,200,5.0,14.0,46,0.00,,,0.00,VWS V14.01,2013-10-24 16:21:00,
2013-10-24 12:31:00,50.5,30.5,29.74,SW,219,2.0,10.0,46,0.00,,,0.00,VWS V14.01,2013-10-24 16:31:00,
2013-10-24 12:41:00,50.9,30.3,29.74,SSW,204,2.0,10.0,45,0.00,,,0.00,VWS V14.01,2013-10-24 16:41:00,
2013-10-24 12:51:00,51.3,31.8,29.73,North,360,3.0,11.0,47,0.00,,,0.00,VWS V14.01,2013-10-24 16:51:00,
2013-10-24 13:01:00,51.4,31.3,29.73,SW,234,2.0,12.0,46,0.00,,,0.00,VWS V14.01,2013-10-24 17:01:00,
2013-10-24 13:11:00,51.5,30.9,29.73,South,184,6.0,12.0,45,0.00,,,0.00,VWS V14.01,2013-10-24 17:11:00,
2013-10-24 13:21:00,51.8,30.0,29.72,SSW,199,4.0,10.0,43,0.00,,,0.00,VWS V14.01,2013-10-24 17:21:00,
2013-10-24 13:31:00,52.2,29.8,29.71,WSW,240,3.0,12.0,42,0.00,,,0.00,VWS V14.01,2013-10-24 17:31:00,
2013-10-24 13:41:00,52.4,29.4,29.71,NNE,28,4.0,7.0,41,0.00,,,0.00,VWS V14.01,2013-10-24 17:41:00,
2013-10-24 13:51:00,52.6,29.6,29.71,SSW,208,4.0,11.0,41,0.00,,,0.00,VWS V14.01,2013-10-24 17:51:00,
2013-10-24 14:01:00,52.8,30.4,29.70,SSW,205,1.0,13.0,42,0.00,,,0.00,VWS V14.01,2013-10-24 18:01:00,
2013-10-24 14:11:00,53.0,30.0,29.70,WSW,248,1.0,7.0,41,0.00,,,0.00,VWS V14.01,2013-10-24 18:11:00,
2013-10-24 14:21:00,53.6,30.5,29.70,SSW,213,2.0,6.0,41,0.00,,,0.00,VWS V14.01,2013-10-24 18:21:00,
2013-10-24 14:31:00,53.7,30.0,29.70,SW,234,1.0,12.0,40,0.00,,,0.00,VWS V14.01,2013-10-24 18:31:00,
2013-10-24 14:41:00,53.1,30.0,29.70,SW,225,1.0,11.0,41,0.00,,,0.00,VWS V14.01,2013-10-24 18:41:00,
2013-10-24 14:51:00,52.6,30.8,29.71,SW,225,2.0,7.0,43,0.00,,,0.00,VWS V14.01,2013-10-24 18:51:00,
2013-10-24 15:01:00,52.7,31.4,29.70,SSW,209,1.0,10.0,44,0.00,,,0.00,VWS V14.01,2013-10-24 19:01:00,
2013-10-24 15:11:00,53.5,30.4,29.70,South,187,2.0,6.0,41,0.00,,,0.00,VWS V14.01,2013-10-24 19:11:00,
2013-10-24 15:21:00,53.7,31.8,29.71,SSW,205,2.0,8.0,43,0.00,,,0.00,VWS V14.01,2013-10-24 19:21:00,
2013-10-24 15:31:00,53.7,30.0,29.71,WSW,238,2.0,6.0,40,0.00,,,0.00,VWS V14.01,2013-10-24 19:31:00,
2013-10-24 15:41:00,53.5,30.4,29.71,SW,227,1.0,9.0,41,0.00,,,0.00,VWS V14.01,2013-10-24 19:41:00,
2013-10-24 15:51:00,53.1,30.0,29.71,WSW,250,4.0,8.0,41,0.00,,,0.00,VWS V14.01,2013-10-24 19:51:00,
2013-10-24 16:01:00,52.5,30.1,29.72,SW,221,3.0,10.0,42,0.00,,,0.00,VWS V14.01,2013-10-24 20:01:00,
2013-10-24 16:11:00,52.1,29.1,29.72,SW,214,2.0,11.0,41,0.00,,,0.00,VWS V14.01,2013-10-24 20:11:00,
2013-10-24 16:21:00,51.5,28.6,29.72,SW,215,2.0,10.0,41,0.00,,,0.00,VWS V14.01,2013-10-24 20:21:00,
2013-10-24 16:31:00,51.2,28.9,29.72,SSW,206,0.0,11.0,42,0.00,,,0.00,VWS V14.01,2013-10-24 20:31:00,
2013-10-24 16:41:00,51.2,28.9,29.72,WSW,246,2.0,6.0,42,0.00,,,0.00,VWS V14.01,2013-10-24 20:41:00,
2013-10-24 16:51:00,51.3,29.6,29.72,SW,220,2.0,9.0,43,0.00,,,0.00,VWS V14.01,2013-10-24 20:51:00,
2013-10-24 17:01:00,51.2,30.0,29.72,SW,219,0.0,6.0,44,0.00,,,0.00,VWS V14.01,2013-10-24 21:01:00,
2013-10-24 17:11:00,51.1,30.0,29.72,SW,229,1.0,10.0,44,0.00,,,0.00,VWS V14.01,2013-10-24 21:11:00,
2013-10-24 17:21:00,50.9,29.8,29.73,SSW,204,2.0,4.0,44,0.00,,,0.00,VWS V14.01,2013-10-24 21:21:00,
2013-10-24 17:31:00,50.8,30.8,29.73,SW,227,1.0,6.0,46,0.00,,,0.00,VWS V14.01,2013-10-24 21:31:00,
2013-10-24 17:41:00,50.5,29.4,29.73,SW,221,1.0,5.0,44,0.00,,,0.00,VWS V14.01,2013-10-24 21:41:00,
2013-10-24 17:51:00,50.0,31.6,29.74,SSW,213,0.0,2.0,49,0.00,,,0.00,VWS V14.01,2013-10-24 21:51:00,
2013-10-24 18:01:00,49.2,30.9,29.74,SSW,203,0.0,4.0,49,0.00,,,0.00,VWS V14.01,2013-10-24 22:01:00,
2013-10-24 18:11:00,48.8,31.5,29.74,SSW,208,0.0,3.0,51,0.00,,,0.00,VWS V14.01,2013-10-24 22:11:00,
2013-10-24 18:21:00,48.8,30.5,29.75,SW,223,1.0,6.0,49,0.00,,,0.00,VWS V14.01,2013-10-24 22:21:00,
2013-10-24 18:31:00,49.0,31.2,29.76,SSW,196,1.0,3.0,50,0.00,,,0.00,VWS V14.01,2013-10-24 22:31:00,
2013-10-24 18:41:00,48.8,33.4,29.76,SSW,202,0.0,4.0,55,0.00,,,0.00,VWS V14.01,2013-10-24 22:41:00,
2013-10-24 18:51:00,48.5,30.7,29.77,SW,220,1.0,4.0,50,0.00,,,0.00,VWS V14.01,2013-10-24 22:51:00,
2013-10-24 19:01:00,48.0,30.8,29.77,SSW,210,1.0,4.0,51,0.00,,,0.00,VWS V14.01,2013-10-24 23:01:00,
2013-10-24 19:11:00,47.4,31.6,29.77,SW,227,0.0,4.0,54,0.00,,,0.00,VWS V14.01,2013-10-24 23:11:00,
2013-10-24 19:21:00,47.1,30.9,29.78,SW,220,2.0,6.0,53,0.00,,,0.00,VWS V14.01,2013-10-24 23:21:00,
2013-10-24 19:31:00,46.5,30.8,29.78,SW,219,1.0,2.0,54,0.00,,,0.00,VWS V14.01,2013-10-24 23:31:00,
2013-10-24 19:41:00,45.9,32.0,29.78,SW,219,0.0,3.0,58,0.00,,,0.00,VWS V14.01,2013-10-24 23:41:00,
2013-10-24 19:51:00,45.4,31.5,29.79,SSW,209,1.0,2.0,58,0.00,,,0.00,VWS V14.01,2013-10-24 23:51:00,
2013-10-24 20:01:00,45.2,31.7,29.79,SW,236,0.0,5.0,59,0.00,,,0.00,VWS V14.01,2013-10-25 00:01:00,
2013-10-24 20:11:00,45.3,32.2,29.79,SW,218,3.0,3.0,60,0.00,,,0.00,VWS V14.01,2013-10-25 00:11:00,
2013-10-24 20:21:00,45.6,32.1,29.79,SW,217,1.0,3.0,59,0.00,,,0.00,VWS V14.01,2013-10-25 00:21:00,
2013-10-24 20:31:00,45.8,30.6,29.79,South,184,1.0,4.0,55,0.00,,,0.00,VWS V14.01,2013-10-25 00:31:00,
2013-10-24 20:41:00,45.9,31.1,29.79,SSW,200,0.0,4.0,56,0.00,,,0.00,VWS V14.01,2013-10-25 00:41:00,
2013-10-24 20:51:00,46.0,30.3,29.80,SSW,192,2.0,7.0,54,0.00,,,0.00,VWS V14.01,2013-10-25 00:51:00,
2013-10-24 21:01:00,45.9,30.2,29.80,SSW,205,1.0,5.0,54,0.00,,,0.00,VWS V14.01,2013-10-25 01:01:00,
2013-10-24 21:11:00,45.6,30.4,29.80,SSW,205,1.0,3.0,55,0.00,,,0.00,VWS V14.01,2013-10-25 01:11:00,
2013-10-24 21:21:00,45.0,30.3,29.81,SW,216,2.0,4.0,56,0.00,,,0.00,VWS V14.01,2013-10-25 01:21:00,
2013-10-24 21:31:00,44.6,29.9,29.81,SSW,207,1.0,4.0,56,0.00,,,0.00,VWS V14.01,2013-10-25 01:31:00,
2013-10-24 21:41:00,44.4,30.1,29.81,SSW,208,1.0,3.0,57,0.00,,,0.00,VWS V14.01,2013-10-25 01:41:00,
2013-10-24 21:51:00,44.1,29.9,29.81,SW,214,1.0,4.0,57,0.00,,,0.00,VWS V14.01,2013-10-25 01:51:00,
2013-10-24 22:01:00,43.7,30.3,29.82,South,176,1.0,3.0,59,0.00,,,0.00,VWS V14.01,2013-10-25 02:01:00,
2013-10-24 22:11:00,43.4,30.0,29.82,SSW,200,0.0,2.0,59,0.00,,,0.00,VWS V14.01,2013-10-25 02:11:00,
2013-10-24 22:21:00,43.4,30.5,29.83,SW,219,0.0,3.0,60,0.00,,,0.00,VWS V14.01,2013-10-25 02:21:00,
2013-10-24 22:31:00,43.5,29.7,29.83,SW,215,1.0,3.0,58,0.00,,,0.00,VWS V14.01,2013-10-25 02:31:00,
2013-10-24 22:41:00,43.7,29.0,29.83,SW,221,1.0,3.0,56,0.00,,,0.00,VWS V14.01,2013-10-25 02:41:00,
2013-10-24 22:51:00,43.9,30.1,29.83,SSW,211,2.0,5.0,58,0.00,,,0.00,VWS V14.01,2013-10-25 02:51:00,
2013-10-24 23:01:00,43.8,29.1,29.83,WSW,240,1.0,5.0,56,0.00,,,0.00,VWS V14.01,2013-10-25 03:01:00,
2013-10-24 23:11:00,43.8,29.1,29.83,WSW,240,0.0,6.0,56,0.00,,,0.00,VWS V14.01,2013-10-25 03:11:00,
2013-10-24 23:21:00,43.6,29.4,29.83,SSW,206,2.0,4.0,57,0.00,,,0.00,VWS V14.01,2013-10-25 03:21:00,
2013-10-24 23:31:00,43.4,29.6,29.83,SSW,208,3.0,5.0,58,0.00,,,0.00,VWS V14.01,2013-10-25 03:31:00,
2013-10-24 23:41:00,43.3,30.0,29.83,SSW,211,5.0,6.0,59,0.00,,,0.00,VWS V14.01,2013-10-25 03:41:00,
2013-10-24 23:51:00,43.3,30.0,29.83,SSW,199,1.0,5.0,59,0.00,,,0.00,VWS V14.01,2013-10-25 03:51:00,